Time;durP1;ratioP1;P1;durP2;ratioP2;P2;SDS_P1;SDS_P2;PMS_P1;PMS_P2;Temp;Humidity;BMP_temperature;BMP_pressure;BME280_temperature;BME280_humidity;BME280_pressure;Samples;Min_cycle;Max_cycle;Signal;HPM_P1;HPM_P2
2022/10/17 00:00:00;;;;;;;3.53;2.58;;;;;;;21.21;46.41;96818.44;5053287;28;20217;-77
2022/10/17 00:02:27;;;;;;;4.45;2.70;;;;;;;21.26;46.81;96823.94;5053889;28;20233;-79
2022/10/17 00:04:54;;;;;;;3.30;2.60;;;;;;;21.22;47.12;96844.81;5059289;28;20205;-78
2022/10/17 00:07:21;;;;;;;4.70;2.67;;;;;;;21.13;46.94;96831.66;5054213;28;20193;-79
2022/10/17 00:09:50;;;;;;;2.40;2.20;;;;;;;21.19;46.23;96828.91;5055493;28;20280;-79
2022/10/17 00:12:17;;;;;;;2.80;2.33;;;;;;;21.10;47.22;96836.88;5055045;28;20205;-78
2022/10/17 00:14:44;;;;;;;2.90;2.55;;;;;;;21.14;46.30;96822.31;5052988;28;20219;-78
2022/10/17 00:17:11;;;;;;;2.60;2.40;;;;;;;21.23;45.84;96843.72;5050817;28;20217;-78
2022/10/17 00:19:38;;;;;;;3.45;2.67;;;;;;;21.21;46.36;96832.19;5064127;28;20212;-79
2022/10/17 00:22:05;;;;;;;3.00;2.50;;;;;;;21.17;46.57;96845.69;5055416;28;20221;-80
2022/10/17 00:24:32;;;;;;;3.67;2.25;;;;;;;21.11;46.97;96853.09;5059251;28;20209;-77
2022/10/17 00:27:00;;;;;;;3.08;2.40;;;;;;;20.92;47.27;96838.41;5055913;28;20213;-79
2022/10/17 00:29:27;;;;;;;3.65;2.58;;;;;;;21.03;46.84;96823.50;5056984;28;20249;-78
2022/10/17 00:31:55;;;;;;;4.18;2.60;;;;;;;21.06;46.68;96841.31;5052095;28;20217;-79
2022/10/17 00:34:22;;;;;;;2.80;2.50;;;;;;;21.03;46.90;96839.97;5053151;28;20236;-78
2022/10/17 00:36:52;;;;;;;3.03;2.60;;;;;;;20.99;47.16;96832.59;5052238;28;20200;-78
2022/10/17 00:39:19;;;;;;;3.45;2.45;;;;;;;20.95;46.75;96839.75;5051545;28;20198;-78
2022/10/17 00:41:46;;;;;;;2.50;2.30;;;;;;;20.96;46.86;96817.50;5049554;28;20205;-79
2022/10/17 00:44:50;;;;;;;5.25;2.20;;;;;;;20.32;49.01;96851.31;5058653;28;20217;-79
2022/10/17 00:47:22;;;;;;;2.40;2.20;;;;;;;20.52;48.21;96849.59;5059542;28;20247;-79
2022/10/17 00:49:50;;;;;;;3.60;2.42;;;;;;;20.82;47.42;96851.38;5048048;28;20206;-79
2022/10/17 00:52:21;;;;;;;2.75;2.30;;;;;;;20.87;47.46;96841.16;5052138;28;20204;-78
2022/10/17 00:54:53;;;;;;;3.38;2.40;;;;;;;20.80;47.63;96835.19;5067068;28;20217;-79
2022/10/17 00:57:21;;;;;;;3.40;2.25;;;;;;;20.95;46.52;96821.34;5052778;28;20209;-79
2022/10/17 00:59:53;;;;;;;2.90;2.05;;;;;;;21.09;46.12;96833.34;5056674;28;20203;-78
2022/10/17 01:02:22;;;;;;;6.75;2.70;;;;;;;20.93;46.95;96831.78;5061229;28;20209;-79
2022/10/17 01:04:53;;;;;;;2.90;2.30;;;;;;;20.76;47.38;96834.09;5048301;28;20202;-79
2022/10/17 01:07:20;;;;;;;3.40;2.35;;;;;;;20.78;47.15;96831.88;5050734;28;20199;-78
2022/10/17 01:09:48;;;;;;;3.42;2.70;;;;;;;20.94;46.22;96824.38;5061764;28;20224;-79
2022/10/17 01:12:22;;;;;;;4.75;2.20;;;;;;;21.02;45.83;96813.59;5059143;28;20210;-78
2022/10/17 01:15:09;;;;;;;3.30;2.00;;;;;;;20.61;47.42;96828.69;5054422;28;20210;-80
2022/10/17 01:17:52;;;;;;;3.45;2.45;;;;;;;20.88;46.11;96829.09;5055041;28;20207;-78
2022/10/17 01:20:53;;;;;;;4.70;2.30;;;;;;;20.84;46.50;96830.75;5053323;28;20229;-77
2022/10/17 01:23:38;;;;;;;3.90;2.65;;;;;;;20.95;46.63;96831.50;5058539;28;20236;-78
2022/10/17 01:26:19;;;;;;;2.22;2.03;;;;;;;20.98;46.06;96812.56;5048344;28;20480;-78
2022/10/17 01:29:21;;;;;;;3.25;2.65;;;;;;;20.99;45.60;96822.44;5050621;28;20202;-78
2022/10/17 01:31:55;;;;;;;2.25;2.05;;;;;;;21.10;45.60;96802.00;5037917;28;20230;-77
2022/10/17 01:34:34;;;;;;;4.15;2.50;;;;;;;21.15;45.44;96802.00;5064095;28;20238;-79
2022/10/17 01:37:07;;;;;;;2.58;2.35;;;;;;;20.93;46.46;96812.56;5054412;28;20198;-77
2022/10/17 01:39:44;;;;;;;2.70;2.50;;;;;;;20.96;45.57;96795.53;5055958;28;20217;-78
2022/10/17 01:42:17;;;;;;;2.55;2.35;;;;;;;21.03;45.09;96806.19;5048477;28;20232;-78
2022/10/17 01:44:54;;;;;;;3.20;2.38;;;;;;;21.04;45.22;96797.69;5052194;28;20209;-77
2022/10/17 01:47:27;;;;;;;2.90;2.53;;;;;;;20.99;45.71;96816.13;5051885;28;20236;-78
2022/10/17 01:50:00;;;;;;;2.83;2.20;;;;;;;20.91;45.40;96798.34;5048091;28;20202;-79
2022/10/17 01:52:33;;;;;;;2.50;2.28;;;;;;;20.98;45.50;96785.09;5061025;28;20201;-77
2022/10/17 01:55:06;;;;;;;3.25;1.98;;;;;;;21.19;44.04;96798.69;5053738;28;20208;-78
2022/10/17 01:57:38;;;;;;;3.75;2.35;;;;;;;21.18;44.06;96775.91;5058123;28;20210;-78
2022/10/17 02:00:09;;;;;;;2.45;2.08;;;;;;;21.23;44.40;96795.09;5061420;28;20210;-78
2022/10/17 02:02:42;;;;;;;2.95;2.15;;;;;;;21.34;43.72;96801.34;5060898;28;20231;-78
2022/10/17 02:05:10;;;;;;;2.47;2.22;;;;;;;21.33;43.62;96791.44;5061939;28;20202;-78
2022/10/17 02:07:37;;;;;;;2.33;2.13;;;;;;;21.23;44.11;96797.03;5051217;28;20300;-78
2022/10/17 02:10:16;;;;;;;3.35;2.45;;;;;;;21.22;44.01;96776.16;5069769;28;20226;-79
2022/10/17 02:12:51;;;;;;;3.15;1.90;;;;;;;21.33;43.36;96783.22;5061787;28;20210;-78
2022/10/17 02:15:37;;;;;;;2.40;2.20;;;;;;;21.38;43.46;96791.38;5059914;28;20292;-81
2022/10/17 02:18:19;;;;;;;2.20;2.00;;;;;;;21.21;43.79;96786.31;5052038;28;20217;-77
2022/10/17 02:20:52;;;;;;;3.42;2.40;;;;;;;21.31;43.38;96757.94;5061819;28;20209;-78
2022/10/17 02:23:27;;;;;;;2.40;2.20;;;;;;;20.60;45.68;96763.94;5056175;28;20227;-77
2022/10/17 02:26:03;;;;;;;2.55;2.35;;;;;;;21.08;44.47;96782.28;5063072;28;20198;-79
2022/10/17 02:28:38;;;;;;;2.75;2.08;;;;;;;21.23;43.95;96770.38;5065192;28;20202;-79
2022/10/17 02:31:15;;;;;;;2.53;2.00;;;;;;;20.76;45.07;96769.03;5057072;28;20266;-78
2022/10/17 02:33:50;;;;;;;2.30;2.08;;;;;;;20.55;45.83;96772.22;5062104;28;20233;-78
2022/10/17 02:36:24;;;;;;;2.40;1.95;;;;;;;20.88;44.56;96768.69;5059148;28;20204;-80
2022/10/17 02:38:53;;;;;;;2.50;2.30;;;;;;;20.86;45.07;96773.66;5064688;28;20218;-79
2022/10/17 02:41:21;;;;;;;2.33;2.10;;;;;;;20.82;44.98;96756.13;5060504;28;20209;-79
2022/10/17 02:43:50;;;;;;;2.25;1.80;;;;;;;20.51;46.61;96780.19;5063181;28;20233;-79
2022/10/17 02:46:21;;;;;;;2.30;1.80;;;;;;;19.74;48.58;96781.56;5052074;28;20201;-80
2022/10/17 02:48:53;;;;;;;1.90;1.80;;;;;;;19.57;49.16;96784.59;5063908;28;20206;-79
2022/10/17 02:51:28;;;;;;;2.53;2.10;;;;;;;19.65;49.30;96778.56;5054851;28;20205;-78
2022/10/17 02:54:02;;;;;;;1.80;1.70;;;;;;;19.75;48.17;96785.13;5058393;28;20201;-78
2022/10/17 02:56:34;;;;;;;2.10;1.90;;;;;;;19.96;48.10;96782.06;5050270;28;20208;-77
2022/10/17 02:59:07;;;;;;;2.10;1.87;;;;;;;19.50;49.83;96792.28;5055312;28;20217;-77
2022/10/17 03:01:36;;;;;;;2.33;2.13;;;;;;;20.00;47.56;96787.78;5049424;28;20260;-78
2022/10/17 03:04:10;;;;;;;2.00;1.80;;;;;;;19.93;48.04;96784.53;5059986;28;20249;-78
2022/10/17 03:06:37;;;;;;;2.63;2.20;;;;;;;20.07;47.36;96779.28;5056837;28;20213;-78
2022/10/17 03:09:04;;;;;;;3.65;2.35;;;;;;;20.10;47.60;96790.50;5056950;28;20233;-77
2022/10/17 03:11:32;;;;;;;2.70;2.28;;;;;;;20.73;45.02;96777.03;5052607;28;20218;-78
2022/10/17 03:13:59;;;;;;;2.25;2.05;;;;;;;20.30;46.47;96784.94;5059639;28;20195;-78
2022/10/17 03:16:27;;;;;;;1.92;1.77;;;;;;;20.45;46.74;96791.47;5054426;28;20198;-78
2022/10/17 03:18:55;;;;;;;2.40;1.90;;;;;;;20.25;46.80;96792.34;5057005;28;20222;-78
2022/10/17 03:21:24;;;;;;;2.20;2.00;;;;;;;20.48;45.84;96789.00;5064355;28;20227;-77
2022/10/17 03:23:52;;;;;;;3.28;2.20;;;;;;;20.54;46.21;96781.53;5059953;28;20225;-77
2022/10/17 03:26:21;;;;;;;2.38;1.90;;;;;;;20.53;45.72;96783.47;5061118;28;20269;-78
2022/10/17 03:28:48;;;;;;;2.65;1.70;;;;;;;20.07;47.83;96793.00;5052752;28;20264;-77
2022/10/17 03:31:17;;;;;;;2.58;1.55;;;;;;;19.34;49.45;96798.84;5072069;28;20236;-79
2022/10/17 03:33:45;;;;;;;2.22;1.80;;;;;;;20.06;46.58;96792.16;5064254;28;20232;-77
2022/10/17 03:36:15;;;;;;;2.22;1.80;;;;;;;19.91;47.57;96790.28;5056446;28;20212;-77
2022/10/17 03:38:46;;;;;;;2.88;1.75;;;;;;;19.69;48.70;96792.53;5052014;28;20237;-78
2022/10/17 03:41:14;;;;;;;2.65;2.30;;;;;;;20.47;45.58;96808.47;5051251;28;20207;-78
2022/10/17 03:43:41;;;;;;;3.17;2.35;;;;;;;20.53;45.89;96815.56;5051818;28;20218;-78
2022/10/17 03:46:09;;;;;;;2.22;1.92;;;;;;;20.22;46.77;96810.19;5058526;28;20195;-78
2022/10/17 03:48:37;;;;;;;3.03;1.58;;;;;;;19.63;48.92;96810.91;5066451;28;20346;-79
2022/10/17 03:51:06;;;;;;;3.53;2.10;;;;;;;19.61;48.55;96799.41;5059103;28;20249;-79
2022/10/17 03:53:37;;;;;;;1.90;1.65;;;;;;;19.53;49.00;96816.41;5051657;28;20248;-79
2022/10/17 03:56:11;;;;;;;2.17;1.95;;;;;;;19.51;49.00;96813.13;5056005;28;20206;-78
2022/10/17 03:58:40;;;;;;;1.92;1.70;;;;;;;19.92;47.24;96802.06;5053972;28;20267;-80
2022/10/17 04:01:08;;;;;;;1.90;1.80;;;;;;;19.69;48.21;96830.06;5059583;28;20221;-78
2022/10/17 04:03:35;;;;;;;1.80;1.70;;;;;;;19.65;48.29;96816.09;5053407;28;20237;-81
2022/10/17 04:06:06;;;;;;;2.92;1.95;;;;;;;19.54;49.05;96822.72;5054892;28;20198;-78
2022/10/17 04:08:35;;;;;;;1.83;1.73;;;;;;;19.21;50.37;96835.84;5061272;28;20231;-78
2022/10/17 04:11:13;;;;;;;2.83;2.08;;;;;;;19.11;51.28;96835.00;5058389;28;20217;-78
2022/10/17 04:13:40;;;;;;;5.32;2.05;;;;;;;18.90;54.48;96843.16;5061588;28;20198;-77
2022/10/17 04:16:11;;;;;;;3.28;2.20;;;;;;;18.75;54.09;96848.63;5061037;28;20194;-78
2022/10/17 04:18:44;;;;;;;2.05;1.80;;;;;;;18.66;55.42;96855.72;5056614;28;20271;-78
2022/10/17 04:21:13;;;;;;;4.50;1.90;;;;;;;18.27;56.22;96868.13;5050447;28;20459;-79
2022/10/17 04:23:40;;;;;;;1.98;1.60;;;;;;;17.78;58.57;96863.72;5050860;28;20214;-77
2022/10/17 04:26:19;;;;;;;4.10;1.90;;;;;;;17.32;61.64;96876.19;5056856;28;20213;-79
2022/10/17 04:28:46;;;;;;;2.43;1.40;;;;;;;16.92;64.13;96881.28;5054632;28;20210;-78
2022/10/17 04:31:14;;;;;;;4.10;1.40;;;;;;;16.45;66.84;96891.91;5053943;28;20201;-78
2022/10/17 04:34:01;;;;;;;2.43;1.83;;;;;;;16.17;69.10;96879.28;5057416;28;20251;-79
2022/10/17 04:36:28;;;;;;;1.83;1.70;;;;;;;16.01;70.28;96888.31;5056568;28;20220;-78
2022/10/17 04:38:56;;;;;;;5.40;1.87;;;;;;;15.83;72.51;96889.44;5052102;28;20288;-79
2022/10/17 04:41:25;;;;;;;4.93;1.70;;;;;;;15.76;73.90;96889.59;5057264;28;20198;-79
2022/10/17 04:43:52;;;;;;;1.93;1.40;;;;;;;15.70;75.65;96895.22;5053157;28;20209;-78
2022/10/17 04:46:21;;;;;;;5.00;2.13;;;;;;;15.67;79.22;96896.53;5060861;28;20194;-78
2022/10/17 04:48:49;;;;;;;4.10;2.10;;;;;;;15.54;81.45;96894.19;5055083;28;20263;-80
2022/10/17 04:51:18;;;;;;;6.23;2.80;;;;;;;15.51;83.67;96900.91;5054239;28;20277;-78
2022/10/17 04:54:06;;;;;;;4.67;2.33;;;;;;;15.45;83.58;96910.06;5054777;28;20202;-78
2022/10/17 04:56:35;;;;;;;5.30;1.90;;;;;;;15.49;81.28;96904.94;5060693;28;20206;-78
2022/10/17 04:59:02;;;;;;;3.40;1.90;;;;;;;15.52;79.33;96909.91;5058559;28;20241;-77
2022/10/17 05:01:31;;;;;;;2.10;1.87;;;;;;;15.52;79.90;96910.72;5065181;28;20198;-79
2022/10/17 05:03:59;;;;;;;3.80;2.00;;;;;;;15.59;80.83;96907.84;5052309;28;20228;-77
2022/10/17 05:06:27;;;;;;;5.63;1.90;;;;;;;15.60;80.34;96901.34;5060708;28;20201;-80
2022/10/17 05:09:12;;;;;;;3.40;2.00;;;;;;;15.54;82.61;96906.97;5063677;28;20200;-77
2022/10/17 05:11:42;;;;;;;5.80;1.70;;;;;;;15.50;81.02;96901.13;5049669;28;20230;-78
2022/10/17 05:14:10;;;;;;;3.07;2.23;;;;;;;15.42;81.99;96901.56;5055101;28;20225;-78
2022/10/17 05:16:38;;;;;;;4.27;1.60;;;;;;;15.29;81.21;96897.28;5064197;28;20462;-78
2022/10/17 05:19:05;;;;;;;5.63;1.67;;;;;;;15.26;82.82;96894.22;5048872;28;20289;-78
2022/10/17 05:21:39;;;;;;;4.10;2.20;;;;;;;15.08;85.36;96906.16;5057461;28;20210;-78
2022/10/17 05:24:07;;;;;;;2.90;2.00;;;;;;;15.00;87.18;96906.53;5050320;28;20272;-78
2022/10/17 05:26:34;;;;;;;6.43;2.13;;;;;;;14.81;88.41;96897.75;5056538;28;20204;-79
2022/10/17 05:29:04;;;;;;;2.53;1.83;;;;;;;14.85;89.72;96907.09;5052064;28;20206;-78
2022/10/17 05:31:34;;;;;;;7.43;2.07;;;;;;;14.74;90.05;96903.34;5053388;28;20206;-79
2022/10/17 05:34:01;;;;;;;6.20;2.23;;;;;;;14.70;92.62;96907.66;5056796;28;20244;-78
2022/10/17 05:36:30;;;;;;;1.57;1.33;;;;;;;14.70;92.65;96909.53;5059947;28;20204;-78
2022/10/17 05:38:59;;;;;;;2.77;1.80;;;;;;;14.57;95.30;96902.47;5055234;28;20206;-79
2022/10/17 05:41:27;;;;;;;2.37;1.73;;;;;;;14.72;92.66;96891.06;5054335;28;20199;-79
2022/10/17 05:43:54;;;;;;;2.17;1.97;;;;;;;14.95;89.01;96906.47;5061577;28;20225;-78
2022/10/17 05:46:32;;;;;;;1.50;1.40;;;;;;;15.39;77.19;96891.19;5053053;28;20197;-79
2022/10/17 05:49:00;;;;;;;3.67;1.70;;;;;;;15.66;75.75;96900.34;5063953;28;20205;-77
2022/10/17 05:51:27;;;;;;;4.87;1.40;;;;;;;15.94;72.25;96884.94;5060569;28;20209;-78
2022/10/17 05:53:56;;;;;;;2.20;1.60;;;;;;;16.27;70.80;96899.31;5061801;28;20194;-79
2022/10/17 05:56:27;;;;;;;3.50;1.70;;;;;;;16.51;71.57;96899.88;5055311;28;20217;-78
2022/10/17 05:58:54;;;;;;;2.07;1.50;;;;;;;16.49;72.69;96893.06;5051527;28;20194;-79
2022/10/17 06:01:41;;;;;;;2.60;1.60;;;;;;;16.45;74.47;96900.06;5051487;28;20279;-78
2022/10/17 06:04:08;;;;;;;1.70;1.60;;;;;;;16.42;71.76;96890.50;5057412;28;20301;-77
2022/10/17 06:06:37;;;;;;;3.43;1.83;;;;;;;16.32;73.59;96895.84;5060690;28;20206;-78
2022/10/17 06:09:06;;;;;;;2.20;1.63;;;;;;;16.43;69.20;96889.41;5054721;28;20202;-78
2022/10/17 06:11:38;;;;;;;2.07;1.87;;;;;;;16.45;70.04;96894.63;5045728;28;20222;-77
2022/10/17 06:14:07;;;;;;;3.33;1.80;;;;;;;16.49;70.02;96902.06;5061725;28;20194;-78
2022/10/17 06:16:35;;;;;;;3.83;3.23;;;;;;;16.60;71.83;96905.69;5052339;28;20198;-77
2022/10/17 06:19:04;;;;;;;2.80;2.60;;;;;;;16.49;72.49;96899.31;5071555;28;20202;-79
2022/10/17 06:21:35;;;;;;;2.77;2.57;;;;;;;16.55;70.91;96906.47;5053329;28;20225;-81
2022/10/17 06:24:10;;;;;;;3.30;1.50;;;;;;;17.02;63.19;96895.00;5052743;28;20245;-79
2022/10/17 06:26:40;;;;;;;1.60;1.50;;;;;;;17.08;64.75;96902.19;5059636;28;20216;-78
2022/10/17 06:29:09;;;;;;;4.13;1.70;;;;;;;17.13;66.12;96907.69;5060035;28;20202;-80
2022/10/17 06:31:42;;;;;;;2.23;1.93;;;;;;;17.19;64.92;96917.56;5062007;28;20221;-79
2022/10/17 06:34:10;;;;;;;3.27;2.23;;;;;;;17.23;65.57;96918.69;5060549;28;20301;-78
2022/10/17 06:36:38;;;;;;;2.33;1.80;;;;;;;17.35;64.21;96911.16;5058335;28;20396;-78
2022/10/17 06:39:06;;;;;;;2.70;2.50;;;;;;;17.30;66.14;96908.38;5075485;28;20194;-78
2022/10/17 06:41:38;;;;;;;3.70;2.23;;;;;;;17.01;70.18;96923.41;5068508;28;20201;-79
2022/10/17 06:44:10;;;;;;;5.07;2.67;;;;;;;16.39;77.05;96929.19;5052877;28;20217;-78
2022/10/17 06:46:56;;;;;;;4.77;2.27;;;;;;;15.72;82.70;96934.75;5052004;28;20252;-79
2022/10/17 06:49:25;;;;;;;6.17;2.47;;;;;;;15.30;86.99;96953.34;5061474;28;20198;-79
2022/10/17 06:52:00;;;;;;;4.27;2.30;;;;;;;15.06;88.64;96962.69;5056087;28;20201;-79
2022/10/17 06:54:48;;;;;;;5.67;2.40;;;;;;;14.83;90.01;96963.59;5061382;28;20292;-79
2022/10/17 06:57:32;;;;;;;6.27;2.67;;;;;;;14.66;95.30;96984.47;5053288;28;20229;-76
2022/10/17 07:00:18;;;;;;;7.67;2.47;;;;;;;14.45;100.00;96974.25;5053786;28;20217;-78
2022/10/17 07:02:50;;;;;;;12.57;2.40;;;;;;;14.41;100.00;96986.66;5061361;28;20206;-79
2022/10/17 07:05:19;;;;;;;5.90;2.33;;;;;;;14.33;100.00;96980.50;5054272;28;20241;-79
2022/10/17 07:07:46;;;;;;;2.87;2.40;;;;;;;14.29;100.00;96987.44;5068012;28;20210;-78
2022/10/17 07:10:14;;;;;;;5.23;2.20;;;;;;;14.29;100.00;96983.94;5050727;28;20222;-78
2022/10/17 07:12:43;;;;;;;5.13;2.50;;;;;;;14.26;100.00;96973.53;5060846;28;20193;-79
2022/10/17 07:15:11;;;;;;;3.43;2.73;;;;;;;14.30;100.00;96986.38;5064615;28;20204;-78
2022/10/17 07:17:39;;;;;;;5.13;2.30;;;;;;;14.29;100.00;97003.75;5051400;28;20206;-78
2022/10/17 07:20:08;;;;;;;3.93;2.10;;;;;;;14.24;100.00;97006.34;5050102;28;20248;-78
2022/10/17 07:22:38;;;;;;;5.73;2.40;;;;;;;14.03;100.00;97013.19;5053335;28;20248;-78
2022/10/17 07:25:08;;;;;;;5.37;2.70;;;;;;;13.91;100.00;97014.28;5053252;28;20214;-79
2022/10/17 07:27:48;;;;;;;7.10;2.57;;;;;;;13.90;100.00;97020.75;5059448;28;20309;-78
2022/10/17 07:30:16;;;;;;;3.63;2.00;;;;;;;13.90;100.00;97015.34;5055887;28;20202;-77
2022/10/17 07:33:03;;;;;;;2.53;2.20;;;;;;;13.87;100.00;97023.94;5065606;28;20331;-77
2022/10/17 07:35:34;;;;;;;6.47;2.47;;;;;;;13.82;100.00;97034.69;5055220;28;20201;-78
2022/10/17 07:38:02;;;;;;;4.53;2.40;;;;;;;13.85;100.00;97036.94;5065358;28;20201;-78
2022/10/17 07:40:29;;;;;;;5.70;2.50;;;;;;;13.84;100.00;97038.00;5057992;28;20201;-78
2022/10/17 07:42:58;;;;;;;7.83;2.50;;;;;;;13.87;100.00;97046.47;5063818;28;20204;-78
2022/10/17 07:45:26;;;;;;;6.93;2.40;;;;;;;13.89;100.00;97048.97;5060964;28;20281;-77
2022/10/17 07:47:56;;;;;;;7.03;2.53;;;;;;;13.93;100.00;97052.88;5055768;28;20259;-79
2022/10/17 07:50:23;;;;;;;10.97;2.40;;;;;;;13.82;100.00;97053.69;5058655;28;20216;-78
2022/10/17 07:52:50;;;;;;;4.37;2.20;;;;;;;13.84;100.00;97057.00;5068751;28;20292;-78
2022/10/17 07:55:19;;;;;;;4.13;2.50;;;;;;;13.85;100.00;97058.66;5063711;28;20209;-78
2022/10/17 07:57:46;;;;;;;4.13;2.43;;;;;;;13.88;100.00;97056.28;5065874;28;20213;-79
2022/10/17 08:00:13;;;;;;;3.60;2.50;;;;;;;13.83;100.00;97058.88;5079397;28;20202;-79
2022/10/17 08:02:41;;;;;;;3.90;2.30;;;;;;;13.79;100.00;97065.00;5054275;28;20284;-79
2022/10/17 08:05:09;;;;;;;3.80;2.50;;;;;;;13.80;100.00;97066.66;5062046;28;20213;-78
2022/10/17 08:07:36;;;;;;;5.97;2.73;;;;;;;13.93;100.00;97071.88;5065501;28;20198;-79
2022/10/17 08:10:03;;;;;;;7.33;2.27;;;;;;;13.86;100.00;97063.03;5063696;28;20243;-78
2022/10/17 08:12:33;;;;;;;2.93;2.23;;;;;;;13.83;100.00;97056.16;5053862;28;20281;-77
2022/10/17 08:15:00;;;;;;;7.80;2.60;;;;;;;14.05;100.00;97069.16;5054826;28;20255;-79
2022/10/17 08:17:27;;;;;;;6.23;2.13;;;;;;;13.87;100.00;97054.63;5056265;28;20196;-78
2022/10/17 08:19:54;;;;;;;3.43;2.73;;;;;;;13.96;100.00;97071.41;5055432;28;20208;-76
2022/10/17 08:22:21;;;;;;;10.83;2.13;;;;;;;13.97;100.00;97057.59;5059000;28;20236;-78
2022/10/17 08:24:49;;;;;;;6.47;2.57;;;;;;;14.13;100.00;97066.09;5058470;28;20283;-83
2022/10/17 08:27:22;;;;;;;8.00;2.10;;;;;;;14.06;100.00;97049.09;5061728;28;20211;-83
2022/10/17 08:29:52;;;;;;;11.97;2.47;;;;;;;14.15;100.00;97064.00;5057605;28;20209;-83
2022/10/17 08:32:20;;;;;;;4.70;1.83;;;;;;;14.31;100.00;97060.56;5052530;28;20236;-83
2022/10/17 08:34:47;;;;;;;4.33;2.10;;;;;;;14.38;100.00;97055.84;5054270;28;20225;-83
2022/10/17 08:37:14;;;;;;;4.07;2.17;;;;;;;14.56;100.00;97061.16;5054661;28;20198;-83
2022/10/17 08:39:42;;;;;;;5.13;2.40;;;;;;;14.68;100.00;97058.44;5057102;28;20205;-83
2022/10/17 08:42:35;;;;;;;10.83;2.50;;;;;;;14.99;100.00;97066.16;5067809;28;20197;-83
2022/10/17 08:45:15;;;;;;;8.73;3.07;;;;;;;15.33;100.00;97079.91;5055551;28;20250;-83
2022/10/17 08:47:44;;;;;;;7.40;3.53;;;;;;;15.51;100.00;97085.16;5066796;28;20278;-83
2022/10/17 08:50:17;;;;;;;6.90;2.70;;;;;;;15.67;100.00;97076.22;5059394;28;20207;-83
2022/10/17 08:52:49;;;;;;;4.73;2.10;;;;;;;15.75;100.00;97070.38;5065661;28;20209;-83
2022/10/17 08:55:20;;;;;;;6.73;2.30;;;;;;;15.87;100.00;97076.59;5063731;28;20296;-82
2022/10/17 08:57:48;;;;;;;3.33;2.07;;;;;;;15.93;100.00;97072.06;5063625;28;20217;-83
2022/10/17 09:00:18;;;;;;;3.50;2.23;;;;;;;16.13;100.00;97077.03;5057134;28;20205;-83
2022/10/17 09:03:02;;;;;;;2.27;1.93;;;;;;;16.26;100.00;97054.88;5058363;28;20300;-84
2022/10/17 09:05:41;;;;;;;3.60;2.00;;;;;;;16.37;100.00;97069.50;5067700;28;20228;-84
2022/10/17 09:08:22;;;;;;;3.60;1.90;;;;;;;16.45;100.00;97064.44;5069419;28;20205;-83
2022/10/17 09:10:58;;;;;;;4.93;2.03;;;;;;;16.51;100.00;97068.06;5076165;28;20315;-83
2022/10/17 09:13:38;;;;;;;5.37;1.93;;;;;;;16.61;100.00;97069.06;5066656;28;20204;-83
2022/10/17 09:16:43;;;;;;;12.00;2.03;;;;;;;16.71;100.00;97064.84;5082866;28;20204;-84
2022/10/17 09:19:18;;;;;;;2.77;2.00;;;;;;;16.83;98.16;97055.50;5087158;28;20231;-83
2022/10/17 09:21:49;;;;;;;2.77;1.93;;;;;;;16.91;93.80;97052.31;5083981;28;20197;-83
2022/10/17 09:24:21;;;;;;;5.77;1.80;;;;;;;17.06;93.71;97061.75;5068227;28;20271;-82
2022/10/17 09:26:48;;;;;;;3.80;1.70;;;;;;;17.20;92.74;97066.56;5058564;28;20217;-83
2022/10/17 09:29:22;;;;;;;6.43;2.03;;;;;;;17.27;92.12;97071.84;5066159;28;20201;-83
2022/10/17 09:32:00;;;;;;;3.37;1.90;;;;;;;17.39;89.78;97076.09;5060029;28;20212;-83
2022/10/17 09:34:29;;;;;;;2.73;2.23;;;;;;;17.52;87.12;97069.41;5065444;28;20227;-83
2022/10/17 09:36:59;;;;;;;3.97;2.30;;;;;;;17.57;84.48;97065.91;5074580;28;20206;-83
2022/10/17 09:39:30;;;;;;;3.80;1.90;;;;;;;17.73;86.87;97084.94;5071328;28;20209;-83
2022/10/17 09:41:59;;;;;;;4.07;1.77;;;;;;;17.89;86.68;97075.00;5060148;28;20288;-83
2022/10/17 09:44:31;;;;;;;6.60;2.07;;;;;;;17.90;86.42;97075.81;5063111;28;20190;-84
2022/10/17 09:47:23;;;;;;;3.72;2.80;;;;;;;18.01;82.15;97080.31;5071423;28;20202;-83
2022/10/17 09:49:50;;;;;;;9.60;1.77;;;;;;;18.14;79.34;97074.41;5076585;28;20296;-84
2022/10/17 09:52:20;;;;;;;3.63;1.83;;;;;;;18.12;77.64;97058.25;5068973;28;20200;-83
2022/10/17 09:54:50;;;;;;;5.40;1.80;;;;;;;18.42;78.79;97076.81;5062014;28;20245;-83
2022/10/17 09:57:18;;;;;;;4.47;1.90;;;;;;;18.46;78.70;97061.50;5060907;28;20269;-84
2022/10/17 09:59:48;;;;;;;4.77;1.90;;;;;;;18.64;78.45;97079.44;5056734;28;20258;-84
2022/10/17 10:02:23;;;;;;;2.53;1.65;;;;;;;18.62;78.54;97064.41;5061711;28;20193;-83
2022/10/17 10:04:56;;;;;;;5.45;2.45;;;;;;;18.75;80.52;97078.44;5066024;28;20234;-83
2022/10/17 10:07:24;;;;;;;5.90;1.83;;;;;;;18.89;80.78;97078.78;5059975;28;20263;-84
2022/10/17 10:09:51;;;;;;;6.10;2.00;;;;;;;19.06;79.32;97079.41;5060353;28;20226;-84
2022/10/17 10:12:21;;;;;;;5.10;2.10;;;;;;;19.28;81.33;97084.72;5082263;28;20208;-84
2022/10/17 10:14:49;;;;;;;6.07;1.92;;;;;;;19.38;81.28;97092.16;5066726;28;20312;-84
2022/10/17 10:17:44;;;;;;;5.25;1.90;;;;;;;19.50;78.44;97093.59;5070968;28;20202;-83
2022/10/17 10:20:27;;;;;;;2.83;1.85;;;;;;;19.65;73.66;97085.41;5028520;28;20213;-82
2022/10/17 10:23:16;;;;;;;9.07;1.95;;;;;;;19.79;73.79;97102.19;5071243;28;20304;-83
2022/10/17 10:25:53;;;;;;;3.17;1.77;;;;;;;19.98;71.97;97097.00;5070026;28;20296;-83
2022/10/17 10:28:24;;;;;;;3.15;1.83;;;;;;;20.15;71.57;97085.78;5057997;28;20296;-84
2022/10/17 10:30:53;;;;;;;4.60;2.17;;;;;;;20.32;70.12;97091.84;5066315;28;20221;-83
2022/10/17 10:33:26;;;;;;;2.22;1.60;;;;;;;20.49;66.85;97095.16;5057624;28;20221;-83
2022/10/17 10:36:00;;;;;;;5.85;2.00;;;;;;;20.73;67.44;97095.41;5064125;28;20279;-84
2022/10/17 10:38:27;;;;;;;1.63;1.48;;;;;;;20.87;65.81;97099.19;5069542;28;20193;-83
2022/10/17 10:40:56;;;;;;;2.17;1.60;;;;;;;21.00;65.12;97098.63;5076265;28;20200;-84
2022/10/17 10:43:33;;;;;;;4.05;1.80;;;;;;;21.21;63.31;97091.19;5058920;28;20309;-84
2022/10/17 10:46:00;;;;;;;3.40;1.70;;;;;;;21.51;62.03;97099.31;5064224;28;20221;-85
2022/10/17 10:48:34;;;;;;;4.65;2.08;;;;;;;21.73;58.78;97098.09;5061933;28;20201;-84
2022/10/17 10:51:05;;;;;;;3.33;2.13;;;;;;;21.88;60.15;97098.81;5058166;28;20213;-83
2022/10/17 10:53:41;;;;;;;2.83;1.60;;;;;;;22.06;58.87;97093.78;5055504;28;20204;-84
2022/10/17 10:56:14;;;;;;;3.88;1.48;;;;;;;22.18;56.71;97091.53;5061042;28;20273;-84
2022/10/17 10:58:52;;;;;;;3.10;1.65;;;;;;;22.04;57.75;97083.06;5063693;28;20209;-83
2022/10/17 11:01:29;;;;;;;3.70;1.75;;;;;;;22.16;57.87;97071.72;5058372;28;20209;-84
2022/10/17 11:04:28;;;;;;;3.53;1.90;;;;;;;22.38;56.70;97074.00;5061697;28;20259;-83
2022/10/17 11:07:02;;;;;;;3.92;1.92;;;;;;;22.48;53.97;97072.00;5066604;28;20225;-84
2022/10/17 11:09:40;;;;;;;2.00;1.73;;;;;;;22.62;55.17;97073.00;5065932;28;20292;-83
2022/10/17 11:12:13;;;;;;;1.92;1.70;;;;;;;22.92;53.73;97068.31;5060457;28;20194;-83
2022/10/17 11:14:47;;;;;;;2.03;1.80;;;;;;;23.22;53.25;97072.66;5071711;28;20201;-84
2022/10/17 11:17:24;;;;;;;1.77;1.67;;;;;;;23.37;53.09;97075.22;5067114;28;20205;-84
2022/10/17 11:20:03;;;;;;;3.08;1.70;;;;;;;23.30;54.37;97064.56;5067532;28;20239;-83
2022/10/17 11:22:33;;;;;;;3.35;1.90;;;;;;;23.37;53.68;97059.53;5066838;28;20204;-83
2022/10/17 11:25:06;;;;;;;4.35;1.80;;;;;;;23.21;54.82;97060.00;5060294;28;20202;-83
2022/10/17 11:27:34;;;;;;;3.70;1.85;;;;;;;22.99;55.26;97052.25;5070220;28;20215;-83
2022/10/17 11:30:02;;;;;;;5.18;1.90;;;;;;;22.94;55.32;97063.34;5056423;28;20200;-82
2022/10/17 11:32:35;;;;;;;2.10;1.90;;;;;;;23.01;57.03;97061.88;5064371;28;20232;-83
2022/10/17 11:35:07;;;;;;;3.55;1.70;;;;;;;23.12;56.98;97067.28;5072700;28;20231;-83
2022/10/17 11:37:37;;;;;;;5.55;2.70;;;;;;;23.13;54.91;97058.72;5069670;28;20475;-83
2022/10/17 11:40:15;;;;;;;7.25;2.25;;;;;;;23.16;54.37;97055.34;5066940;28;20207;-83
2022/10/17 11:42:52;;;;;;;4.60;2.00;;;;;;;23.26;54.88;97046.97;5070961;28;20206;-84
2022/10/17 11:45:25;;;;;;;2.03;1.60;;;;;;;23.42;54.03;97041.25;5082809;28;20242;-83
2022/10/17 11:47:57;;;;;;;2.80;1.70;;;;;;;23.34;54.84;97051.84;5063035;28;20220;-83
2022/10/17 11:50:30;;;;;;;3.35;1.80;;;;;;;23.33;55.42;97030.06;5066271;28;20494;-83
2022/10/17 11:53:02;;;;;;;5.80;1.98;;;;;;;23.59;55.73;97038.84;5061609;28;20236;-83